Terminal Aerodrome Forecast
Issued by NWS Tampa Bay Area, FL

Home | Current Version | Previous Version | Text Only | Print | Product List | Glossary On
Versions: 1 2 3 4 5 6 7 8 9 10 11 12 13 14 15 16 17 18 19 20 21 22 23 24
000
FTUS42 KTBW 301100
TAFTPA
TAF
KTPA 301120Z 3012/3112 VRB03KT P6SM BKN100
     FM301400 VRB03KT P6SM VCSH SCT025 BKN100
     FM301700 25006KT P6SM VCTS SCT035CB BKN080
     FM302100 29006KT P6SM SCT045 BKN080
     FM310000 33005KT P6SM SCT040 BKN080
     FM310600 36004KT P6SM SCT040=

USA.gov is the U.S. government's official web portal to all federal, state and local government web resources and services.